sensor_id;sensor_type;location;lat;lon;timestamp;temperature;humidity
7388;DHT22;3735;50.136;11.062;2024-02-16T00:01:01;6.80;99.90
7388;DHT22;3735;50.136;11.062;2024-02-16T00:03:28;6.80;99.90
7388;DHT22;3735;50.136;11.062;2024-02-16T00:05:54;6.90;99.90
7388;DHT22;3735;50.136;11.062;2024-02-16T00:08:20;7.00;99.90
7388;DHT22;3735;50.136;11.062;2024-02-16T00:10:47;7.00;99.90
7388;DHT22;3735;50.136;11.062;2024-02-16T00:13:13;7.00;99.90
7388;DHT22;3735;50.136;11.062;2024-02-16T00:15:39;6.90;99.90
7388;DHT22;3735;50.136;11.062;2024-02-16T00:18:06;6.90;99.90
7388;DHT22;3735;50.136;11.062;2024-02-16T00:20:32;6.90;99.90
7388;DHT22;3735;50.136;11.062;2024-02-16T00:22:58;7.00;99.90
7388;DHT22;3735;50.136;11.062;2024-02-16T00:25:26;7.00;99.90
7388;DHT22;3735;50.136;11.062;2024-02-16T00:27:52;7.00;99.90
7388;DHT22;3735;50.136;11.062;2024-02-16T00:30:19;7.00;99.90
7388;DHT22;3735;50.136;11.062;2024-02-16T00:32:45;7.00;99.90
7388;DHT22;3735;50.136;11.062;2024-02-16T00:35:17;7.00;99.90
7388;DHT22;3735;50.136;11.062;2024-02-16T00:37:44;7.00;99.90
7388;DHT22;3735;50.136;11.062;2024-02-16T00:40:11;7.00;99.90
7388;DHT22;3735;50.136;11.062;2024-02-16T00:42:38;7.00;99.90
7388;DHT22;3735;50.136;11.062;2024-02-16T00:45:04;7.00;99.90
7388;DHT22;3735;50.136;11.062;2024-02-16T00:47:30;7.00;99.90
7388;DHT22;3735;50.136;11.062;2024-02-16T00:49:56;7.00;99.90
7388;DHT22;3735;50.136;11.062;2024-02-16T00:52:22;7.00;99.90
7388;DHT22;3735;50.136;11.062;2024-02-16T00:54:49;7.00;99.90
7388;DHT22;3735;50.136;11.062;2024-02-16T00:57:15;7.00;99.90
7388;DHT22;3735;50.136;11.062;2024-02-16T00:59:41;7.10;99.90
7388;DHT22;3735;50.136;11.062;2024-02-16T01:02:07;7.00;99.90
7388;DHT22;3735;50.136;11.062;2024-02-16T01:04:34;7.00;99.90
7388;DHT22;3735;50.136;11.062;2024-02-16T01:07:00;7.00;99.90
7388;DHT22;3735;50.136;11.062;2024-02-16T01:09:26;7.00;99.90
7388;DHT22;3735;50.136;11.062;2024-02-16T01:11:52;7.10;99.90
7388;DHT22;3735;50.136;11.062;2024-02-16T01:14:18;7.10;99.90
7388;DHT22;3735;50.136;11.062;2024-02-16T01:16:45;7.10;99.90
7388;DHT22;3735;50.136;11.062;2024-02-16T01:19:11;7.10;99.90
7388;DHT22;3735;50.136;11.062;2024-02-16T01:21:38;7.20;99.90
7388;DHT22;3735;50.136;11.062;2024-02-16T01:24:07;7.20;99.90
7388;DHT22;3735;50.136;11.062;2024-02-16T01:26:34;7.30;99.90
7388;DHT22;3735;50.136;11.062;2024-02-16T01:29:00;7.30;99.90
7388;DHT22;3735;50.136;11.062;2024-02-16T01:31:27;7.40;99.90
7388;DHT22;3735;50.136;11.062;2024-02-16T01:33:53;7.40;99.90
7388;DHT22;3735;50.136;11.062;2024-02-16T01:36:19;7.40;99.90
7388;DHT22;3735;50.136;11.062;2024-02-16T01:38:44;7.40;99.90
7388;DHT22;3735;50.136;11.062;2024-02-16T01:41:10;7.40;99.90
7388;DHT22;3735;50.136;11.062;2024-02-16T01:43:36;7.40;99.90
7388;DHT22;3735;50.136;11.062;2024-02-16T01:46:02;7.50;99.90
7388;DHT22;3735;50.136;11.062;2024-02-16T01:48:28;7.40;99.90
7388;DHT22;3735;50.136;11.062;2024-02-16T01:50:54;7.40;99.90
7388;DHT22;3735;50.136;11.062;2024-02-16T01:53:21;7.40;99.90
7388;DHT22;3735;50.136;11.062;2024-02-16T01:55:48;7.40;99.90
7388;DHT22;3735;50.136;11.062;2024-02-16T01:58:15;7.30;99.90
7388;DHT22;3735;50.136;11.062;2024-02-16T02:00:40;7.30;99.90
7388;DHT22;3735;50.136;11.062;2024-02-16T02:03:07;7.30;99.90
7388;DHT22;3735;50.136;11.062;2024-02-16T02:05:33;7.30;99.90
7388;DHT22;3735;50.136;11.062;2024-02-16T02:07:59;7.40;99.90
7388;DHT22;3735;50.136;11.062;2024-02-16T02:10:34;7.40;99.90
7388;DHT22;3735;50.136;11.062;2024-02-16T02:13:00;7.40;99.90
7388;DHT22;3735;50.136;11.062;2024-02-16T02:15:26;7.40;99.90
7388;DHT22;3735;50.136;11.062;2024-02-16T02:17:51;7.50;99.90
7388;DHT22;3735;50.136;11.062;2024-02-16T02:20:17;7.50;99.90
7388;DHT22;3735;50.136;11.062;2024-02-16T02:22:43;7.50;99.90
7388;DHT22;3735;50.136;11.062;2024-02-16T02:25:09;7.50;99.90
7388;DHT22;3735;50.136;11.062;2024-02-16T02:27:37;7.50;99.90
7388;DHT22;3735;50.136;11.062;2024-02-16T02:30:04;7.50;99.90
7388;DHT22;3735;50.136;11.062;2024-02-16T02:32:31;7.50;99.90
7388;DHT22;3735;50.136;11.062;2024-02-16T02:34:56;7.40;99.90
7388;DHT22;3735;50.136;11.062;2024-02-16T02:37:22;7.40;99.90
7388;DHT22;3735;50.136;11.062;2024-02-16T02:39:48;7.40;99.90
7388;DHT22;3735;50.136;11.062;2024-02-16T02:42:16;7.40;99.90
7388;DHT22;3735;50.136;11.062;2024-02-16T02:44:42;7.40;99.90
7388;DHT22;3735;50.136;11.062;2024-02-16T02:47:18;7.40;99.90
7388;DHT22;3735;50.136;11.062;2024-02-16T02:49:44;7.40;99.90
7388;DHT22;3735;50.136;11.062;2024-02-16T02:52:10;7.30;99.90
7388;DHT22;3735;50.136;11.062;2024-02-16T02:54:36;7.20;99.90
7388;DHT22;3735;50.136;11.062;2024-02-16T02:57:02;7.20;99.90
7388;DHT22;3735;50.136;11.062;2024-02-16T02:59:28;7.20;99.90
7388;DHT22;3735;50.136;11.062;2024-02-16T03:01:54;7.20;99.90
7388;DHT22;3735;50.136;11.062;2024-02-16T03:04:20;7.20;99.90
7388;DHT22;3735;50.136;11.062;2024-02-16T03:06:46;7.20;99.90
7388;DHT22;3735;50.136;11.062;2024-02-16T03:09:12;7.20;99.90
7388;DHT22;3735;50.136;11.062;2024-02-16T03:11:38;7.20;99.90
7388;DHT22;3735;50.136;11.062;2024-02-16T03:14:05;7.10;99.90
7388;DHT22;3735;50.136;11.062;2024-02-16T03:16:31;7.10;99.90
7388;DHT22;3735;50.136;11.062;2024-02-16T03:18:58;7.00;99.90
7388;DHT22;3735;50.136;11.062;2024-02-16T03:21:23;7.10;99.90
7388;DHT22;3735;50.136;11.062;2024-02-16T03:23:49;7.00;99.90
7388;DHT22;3735;50.136;11.062;2024-02-16T03:26:16;7.10;99.90
7388;DHT22;3735;50.136;11.062;2024-02-16T03:28:44;7.10;99.90
7388;DHT22;3735;50.136;11.062;2024-02-16T03:31:21;7.10;99.90
7388;DHT22;3735;50.136;11.062;2024-02-16T03:33:50;7.10;99.90
7388;DHT22;3735;50.136;11.062;2024-02-16T03:36:18;7.10;99.90
7388;DHT22;3735;50.136;11.062;2024-02-16T03:38:48;7.10;99.90
7388;DHT22;3735;50.136;11.062;2024-02-16T03:41:21;7.10;99.90
7388;DHT22;3735;50.136;11.062;2024-02-16T03:43:51;7.10;99.90
7388;DHT22;3735;50.136;11.062;2024-02-16T03:46:17;7.10;99.90
7388;DHT22;3735;50.136;11.062;2024-02-16T03:48:43;7.10;99.90
7388;DHT22;3735;50.136;11.062;2024-02-16T03:51:10;7.10;99.90
7388;DHT22;3735;50.136;11.062;2024-02-16T03:53:35;7.20;99.90
7388;DHT22;3735;50.136;11.062;2024-02-16T03:56:01;7.10;99.90
7388;DHT22;3735;50.136;11.062;2024-02-16T03:58:27;7.20;99.90
7388;DHT22;3735;50.136;11.062;2024-02-16T04:00:53;7.20;99.90
7388;DHT22;3735;50.136;11.062;2024-02-16T04:03:19;7.30;99.90
7388;DHT22;3735;50.136;11.062;2024-02-16T04:05:45;7.30;99.90
7388;DHT22;3735;50.136;11.062;2024-02-16T04:08:10;7.30;99.90
7388;DHT22;3735;50.136;11.062;2024-02-16T04:10:36;7.30;99.90
7388;DHT22;3735;50.136;11.062;2024-02-16T04:13:03;7.30;99.90
7388;DHT22;3735;50.136;11.062;2024-02-16T04:15:29;7.30;99.90
7388;DHT22;3735;50.136;11.062;2024-02-16T04:17:55;7.30;99.90
7388;DHT22;3735;50.136;11.062;2024-02-16T04:20:21;7.30;99.90
7388;DHT22;3735;50.136;11.062;2024-02-16T04:22:47;7.30;99.90
7388;DHT22;3735;50.136;11.062;2024-02-16T04:25:13;7.30;99.90
7388;DHT22;3735;50.136;11.062;2024-02-16T04:27:39;7.30;99.90
7388;DHT22;3735;50.136;11.062;2024-02-16T04:30:05;7.20;99.90
7388;DHT22;3735;50.136;11.062;2024-02-16T04:32:32;7.20;99.90
7388;DHT22;3735;50.136;11.062;2024-02-16T04:34:58;7.20;99.90
7388;DHT22;3735;50.136;11.062;2024-02-16T04:37:27;7.20;99.90
7388;DHT22;3735;50.136;11.062;2024-02-16T04:39:53;7.10;99.90
7388;DHT22;3735;50.136;11.062;2024-02-16T04:42:18;7.10;99.90
7388;DHT22;3735;50.136;11.062;2024-02-16T04:44:44;7.10;99.90
7388;DHT22;3735;50.136;11.062;2024-02-16T04:47:10;7.10;99.90
7388;DHT22;3735;50.136;11.062;2024-02-16T04:49:36;7.10;99.90
7388;DHT22;3735;50.136;11.062;2024-02-16T04:52:02;7.20;99.90
7388;DHT22;3735;50.136;11.062;2024-02-16T04:54:29;7.20;99.90
7388;DHT22;3735;50.136;11.062;2024-02-16T04:56:55;7.20;99.90
7388;DHT22;3735;50.136;11.062;2024-02-16T04:59:20;7.20;99.90
7388;DHT22;3735;50.136;11.062;2024-02-16T05:01:46;7.30;99.90
7388;DHT22;3735;50.136;11.062;2024-02-16T05:04:13;7.30;99.90
7388;DHT22;3735;50.136;11.062;2024-02-16T05:06:42;7.40;99.90
7388;DHT22;3735;50.136;11.062;2024-02-16T05:09:10;7.40;99.90
7388;DHT22;3735;50.136;11.062;2024-02-16T05:11:36;7.50;99.90
7388;DHT22;3735;50.136;11.062;2024-02-16T05:14:02;7.50;99.90
7388;DHT22;3735;50.136;11.062;2024-02-16T05:16:28;7.50;99.90
7388;DHT22;3735;50.136;11.062;2024-02-16T05:18:57;7.50;99.90
7388;DHT22;3735;50.136;11.062;2024-02-16T05:21:23;7.50;99.90
7388;DHT22;3735;50.136;11.062;2024-02-16T05:23:48;7.50;99.90
7388;DHT22;3735;50.136;11.062;2024-02-16T05:26:14;7.50;99.90
7388;DHT22;3735;50.136;11.062;2024-02-16T05:28:40;7.50;99.90
7388;DHT22;3735;50.136;11.062;2024-02-16T05:31:16;7.50;99.90
7388;DHT22;3735;50.136;11.062;2024-02-16T05:33:48;7.50;99.90
7388;DHT22;3735;50.136;11.062;2024-02-16T05:36:19;7.50;99.90
7388;DHT22;3735;50.136;11.062;2024-02-16T05:38:52;7.40;99.90
7388;DHT22;3735;50.136;11.062;2024-02-16T05:41:21;7.40;99.90
7388;DHT22;3735;50.136;11.062;2024-02-16T05:43:47;7.30;99.90
7388;DHT22;3735;50.136;11.062;2024-02-16T05:46:14;7.40;99.90
7388;DHT22;3735;50.136;11.062;2024-02-16T05:48:41;7.30;99.90
7388;DHT22;3735;50.136;11.062;2024-02-16T05:51:08;7.30;99.90
7388;DHT22;3735;50.136;11.062;2024-02-16T05:53:34;7.30;99.90
7388;DHT22;3735;50.136;11.062;2024-02-16T05:56:01;7.20;99.90
7388;DHT22;3735;50.136;11.062;2024-02-16T05:58:27;7.10;99.90
7388;DHT22;3735;50.136;11.062;2024-02-16T06:00:54;7.10;99.90
7388;DHT22;3735;50.136;11.062;2024-02-16T06:03:20;7.10;99.90
7388;DHT22;3735;50.136;11.062;2024-02-16T06:05:47;7.10;99.90
7388;DHT22;3735;50.136;11.062;2024-02-16T06:08:13;7.10;99.90
7388;DHT22;3735;50.136;11.062;2024-02-16T06:10:40;7.00;99.90
7388;DHT22;3735;50.136;11.062;2024-02-16T06:13:07;7.10;99.90
7388;DHT22;3735;50.136;11.062;2024-02-16T06:15:33;7.10;99.90
7388;DHT22;3735;50.136;11.062;2024-02-16T06:18:00;7.10;99.90
7388;DHT22;3735;50.136;11.062;2024-02-16T06:20:26;7.10;99.90
7388;DHT22;3735;50.136;11.062;2024-02-16T06:22:52;7.10;99.90
7388;DHT22;3735;50.136;11.062;2024-02-16T06:25:18;7.10;99.90
7388;DHT22;3735;50.136;11.062;2024-02-16T06:27:44;7.10;99.90
7388;DHT22;3735;50.136;11.062;2024-02-16T06:30:11;7.10;99.90
7388;DHT22;3735;50.136;11.062;2024-02-16T06:32:41;7.10;99.90
7388;DHT22;3735;50.136;11.062;2024-02-16T06:35:08;7.10;99.90
7388;DHT22;3735;50.136;11.062;2024-02-16T06:37:34;7.10;99.90
7388;DHT22;3735;50.136;11.062;2024-02-16T06:40:00;7.20;99.90
7388;DHT22;3735;50.136;11.062;2024-02-16T06:42:26;7.20;99.90
7388;DHT22;3735;50.136;11.062;2024-02-16T06:44:52;7.10;99.90
7388;DHT22;3735;50.136;11.062;2024-02-16T06:47:17;7.20;99.90
7388;DHT22;3735;50.136;11.062;2024-02-16T06:49:44;7.20;99.90
7388;DHT22;3735;50.136;11.062;2024-02-16T06:52:11;7.20;99.90
7388;DHT22;3735;50.136;11.062;2024-02-16T06:54:38;7.30;99.90
7388;DHT22;3735;50.136;11.062;2024-02-16T06:57:03;7.30;99.90
7388;DHT22;3735;50.136;11.062;2024-02-16T06:59:29;7.40;99.90
7388;DHT22;3735;50.136;11.062;2024-02-16T07:01:55;7.40;99.90
7388;DHT22;3735;50.136;11.062;2024-02-16T07:04:21;7.40;99.90
7388;DHT22;3735;50.136;11.062;2024-02-16T07:06:46;7.40;99.90
7388;DHT22;3735;50.136;11.062;2024-02-16T07:09:12;7.50;99.90
7388;DHT22;3735;50.136;11.062;2024-02-16T07:11:41;7.50;99.90
7388;DHT22;3735;50.136;11.062;2024-02-16T07:14:08;7.60;99.90
7388;DHT22;3735;50.136;11.062;2024-02-16T07:16:34;7.70;99.90
7388;DHT22;3735;50.136;11.062;2024-02-16T07:19:00;7.80;99.90
7388;DHT22;3735;50.136;11.062;2024-02-16T07:21:25;7.90;99.90
7388;DHT22;3735;50.136;11.062;2024-02-16T07:23:52;8.10;99.90
7388;DHT22;3735;50.136;11.062;2024-02-16T07:26:18;8.20;99.90
7388;DHT22;3735;50.136;11.062;2024-02-16T07:28:44;8.40;99.90
7388;DHT22;3735;50.136;11.062;2024-02-16T07:31:11;8.50;99.90
7388;DHT22;3735;50.136;11.062;2024-02-16T07:33:40;8.60;99.90
7388;DHT22;3735;50.136;11.062;2024-02-16T07:36:06;8.80;99.90
7388;DHT22;3735;50.136;11.062;2024-02-16T07:38:32;9.00;99.90
7388;DHT22;3735;50.136;11.062;2024-02-16T07:40:58;9.20;99.90
7388;DHT22;3735;50.136;11.062;2024-02-16T07:43:26;9.40;99.90
7388;DHT22;3735;50.136;11.062;2024-02-16T07:45:52;9.60;99.90
7388;DHT22;3735;50.136;11.062;2024-02-16T07:48:22;9.70;99.90
7388;DHT22;3735;50.136;11.062;2024-02-16T07:50:48;9.70;99.90
7388;DHT22;3735;50.136;11.062;2024-02-16T07:53:17;9.70;99.90
7388;DHT22;3735;50.136;11.062;2024-02-16T07:55:43;9.80;99.90
7388;DHT22;3735;50.136;11.062;2024-02-16T07:58:09;9.90;99.90
7388;DHT22;3735;50.136;11.062;2024-02-16T08:00:35;10.00;99.90
7388;DHT22;3735;50.136;11.062;2024-02-16T08:03:01;10.20;99.90
7388;DHT22;3735;50.136;11.062;2024-02-16T08:05:28;10.50;99.90
7388;DHT22;3735;50.136;11.062;2024-02-16T08:07:53;10.70;99.90
7388;DHT22;3735;50.136;11.062;2024-02-16T08:10:20;10.90;99.90
7388;DHT22;3735;50.136;11.062;2024-02-16T08:12:50;10.90;99.90
7388;DHT22;3735;50.136;11.062;2024-02-16T08:15:16;10.90;99.90
7388;DHT22;3735;50.136;11.062;2024-02-16T08:17:48;11.00;99.90
7388;DHT22;3735;50.136;11.062;2024-02-16T08:20:16;11.00;99.90
7388;DHT22;3735;50.136;11.062;2024-02-16T08:22:42;11.30;99.90
7388;DHT22;3735;50.136;11.062;2024-02-16T08:25:08;11.50;99.90
7388;DHT22;3735;50.136;11.062;2024-02-16T08:27:34;12.00;99.90
7388;DHT22;3735;50.136;11.062;2024-02-16T08:30:00;12.40;99.90
7388;DHT22;3735;50.136;11.062;2024-02-16T08:32:28;12.70;99.90
7388;DHT22;3735;50.136;11.062;2024-02-16T08:34:53;13.10;99.90
7388;DHT22;3735;50.136;11.062;2024-02-16T08:37:21;13.60;99.90
7388;DHT22;3735;50.136;11.062;2024-02-16T08:39:47;13.80;99.90
7388;DHT22;3735;50.136;11.062;2024-02-16T08:42:13;13.90;99.90
7388;DHT22;3735;50.136;11.062;2024-02-16T08:44:40;14.00;99.90
7388;DHT22;3735;50.136;11.062;2024-02-16T08:47:07;14.20;99.90
7388;DHT22;3735;50.136;11.062;2024-02-16T08:49:34;14.30;99.90
7388;DHT22;3735;50.136;11.062;2024-02-16T08:52:00;14.50;99.90
7388;DHT22;3735;50.136;11.062;2024-02-16T08:54:26;14.70;99.90
7388;DHT22;3735;50.136;11.062;2024-02-16T08:56:55;14.80;99.90
7388;DHT22;3735;50.136;11.062;2024-02-16T08:59:21;14.90;99.90
7388;DHT22;3735;50.136;11.062;2024-02-16T09:01:47;14.90;99.90
7388;DHT22;3735;50.136;11.062;2024-02-16T09:04:13;14.90;99.90
7388;DHT22;3735;50.136;11.062;2024-02-16T09:06:38;14.70;99.90
7388;DHT22;3735;50.136;11.062;2024-02-16T09:09:04;14.40;99.90
7388;DHT22;3735;50.136;11.062;2024-02-16T09:11:33;14.30;99.90
7388;DHT22;3735;50.136;11.062;2024-02-16T09:13:59;14.20;99.90
7388;DHT22;3735;50.136;11.062;2024-02-16T09:16:25;14.40;99.90
7388;DHT22;3735;50.136;11.062;2024-02-16T09:18:51;14.50;99.90
7388;DHT22;3735;50.136;11.062;2024-02-16T09:21:17;14.60;99.90
7388;DHT22;3735;50.136;11.062;2024-02-16T09:23:43;14.60;99.90
7388;DHT22;3735;50.136;11.062;2024-02-16T09:26:09;14.60;99.90
7388;DHT22;3735;50.136;11.062;2024-02-16T09:28:41;14.70;99.90
7388;DHT22;3735;50.136;11.062;2024-02-16T09:31:07;14.70;99.90
7388;DHT22;3735;50.136;11.062;2024-02-16T09:33:36;14.70;99.90
7388;DHT22;3735;50.136;11.062;2024-02-16T09:36:01;14.70;99.90
7388;DHT22;3735;50.136;11.062;2024-02-16T09:38:27;14.60;99.90
7388;DHT22;3735;50.136;11.062;2024-02-16T09:40:56;14.70;99.90
7388;DHT22;3735;50.136;11.062;2024-02-16T09:43:26;14.80;99.90
7388;DHT22;3735;50.136;11.062;2024-02-16T09:45:56;15.00;99.90
7388;DHT22;3735;50.136;11.062;2024-02-16T09:48:27;15.10;99.90
7388;DHT22;3735;50.136;11.062;2024-02-16T09:50:54;15.20;99.90
7388;DHT22;3735;50.136;11.062;2024-02-16T09:53:27;15.30;99.90
7388;DHT22;3735;50.136;11.062;2024-02-16T09:55:53;15.40;99.90
7388;DHT22;3735;50.136;11.062;2024-02-16T09:58:20;15.40;99.90
7388;DHT22;3735;50.136;11.062;2024-02-16T10:00:50;15.60;99.90
7388;DHT22;3735;50.136;11.062;2024-02-16T10:03:24;15.90;99.90
7388;DHT22;3735;50.136;11.062;2024-02-16T10:05:52;16.50;99.90
7388;DHT22;3735;50.136;11.062;2024-02-16T10:08:19;17.10;99.90
7388;DHT22;3735;50.136;11.062;2024-02-16T10:11:03;17.60;99.90
7388;DHT22;3735;50.136;11.062;2024-02-16T10:13:31;18.10;99.90
7388;DHT22;3735;50.136;11.062;2024-02-16T10:16:10;18.50;99.90
7388;DHT22;3735;50.136;11.062;2024-02-16T10:18:38;18.70;99.90
7388;DHT22;3735;50.136;11.062;2024-02-16T10:21:04;19.20;99.90
7388;DHT22;3735;50.136;11.062;2024-02-16T10:23:31;20.10;99.90
7388;DHT22;3735;50.136;11.062;2024-02-16T10:25:57;21.30;99.90
7388;DHT22;3735;50.136;11.062;2024-02-16T10:28:26;22.60;99.90
7388;DHT22;3735;50.136;11.062;2024-02-16T10:30:58;23.90;99.90
7388;DHT22;3735;50.136;11.062;2024-02-16T10:33:30;24.60;99.90
7388;DHT22;3735;50.136;11.062;2024-02-16T10:35:57;24.30;99.90
7388;DHT22;3735;50.136;11.062;2024-02-16T10:38:25;24.30;99.90
7388;DHT22;3735;50.136;11.062;2024-02-16T10:40:53;24.30;99.90
7388;DHT22;3735;50.136;11.062;2024-02-16T10:43:22;23.90;99.90
7388;DHT22;3735;50.136;11.062;2024-02-16T10:45:49;24.50;99.90
7388;DHT22;3735;50.136;11.062;2024-02-16T10:48:18;24.70;99.90
7388;DHT22;3735;50.136;11.062;2024-02-16T10:50:44;24.40;99.90
7388;DHT22;3735;50.136;11.062;2024-02-16T10:53:25;24.10;99.90
7388;DHT22;3735;50.136;11.062;2024-02-16T10:55:57;23.80;99.90
7388;DHT22;3735;50.136;11.062;2024-02-16T10:58:24;23.40;99.90
7388;DHT22;3735;50.136;11.062;2024-02-16T11:00:54;23.10;99.90
7388;DHT22;3735;50.136;11.062;2024-02-16T11:03:27;22.60;99.90
7388;DHT22;3735;50.136;11.062;2024-02-16T11:05:53;22.20;99.90
7388;DHT22;3735;50.136;11.062;2024-02-16T11:08:29;22.40;99.90
7388;DHT22;3735;50.136;11.062;2024-02-16T11:11:03;23.40;99.90
7388;DHT22;3735;50.136;11.062;2024-02-16T11:13:34;24.00;99.90
7388;DHT22;3735;50.136;11.062;2024-02-16T11:16:03;24.30;99.90
7388;DHT22;3735;50.136;11.062;2024-02-16T11:18:38;24.40;99.90
7388;DHT22;3735;50.136;11.062;2024-02-16T11:21:05;24.30;99.90
7388;DHT22;3735;50.136;11.062;2024-02-16T11:23:35;24.20;99.90
7388;DHT22;3735;50.136;11.062;2024-02-16T11:26:03;24.00;99.90
7388;DHT22;3735;50.136;11.062;2024-02-16T11:28:34;24.10;99.90
7388;DHT22;3735;50.136;11.062;2024-02-16T11:31:01;24.40;99.90
7388;DHT22;3735;50.136;11.062;2024-02-16T11:33:28;24.50;99.90
7388;DHT22;3735;50.136;11.062;2024-02-16T11:36:02;24.40;99.90
7388;DHT22;3735;50.136;11.062;2024-02-16T11:38:33;24.20;99.90
7388;DHT22;3735;50.136;11.062;2024-02-16T11:41:04;23.40;99.90
7388;DHT22;3735;50.136;11.062;2024-02-16T11:43:33;22.40;99.90
7388;DHT22;3735;50.136;11.062;2024-02-16T11:46:10;21.60;99.90
7388;DHT22;3735;50.136;11.062;2024-02-16T11:48:37;21.00;99.90
7388;DHT22;3735;50.136;11.062;2024-02-16T11:51:03;20.50;99.90
7388;DHT22;3735;50.136;11.062;2024-02-16T11:53:30;20.10;99.90
7388;DHT22;3735;50.136;11.062;2024-02-16T11:55:57;19.60;99.90
7388;DHT22;3735;50.136;11.062;2024-02-16T11:58:23;19.50;99.90
7388;DHT22;3735;50.136;11.062;2024-02-16T12:00:51;19.60;99.90
7388;DHT22;3735;50.136;11.062;2024-02-16T12:03:24;19.90;99.90
7388;DHT22;3735;50.136;11.062;2024-02-16T12:05:56;19.80;99.90
7388;DHT22;3735;50.136;11.062;2024-02-16T12:08:23;19.60;99.90
7388;DHT22;3735;50.136;11.062;2024-02-16T12:10:57;19.50;99.90
7388;DHT22;3735;50.136;11.062;2024-02-16T12:13:23;19.30;99.90
7388;DHT22;3735;50.136;11.062;2024-02-16T12:15:50;19.10;99.90
7388;DHT22;3735;50.136;11.062;2024-02-16T12:18:24;18.90;99.90
7388;DHT22;3735;50.136;11.062;2024-02-16T12:21:01;18.80;99.90
7388;DHT22;3735;50.136;11.062;2024-02-16T12:23:32;18.60;99.90
7388;DHT22;3735;50.136;11.062;2024-02-16T12:25:59;18.60;99.90
7388;DHT22;3735;50.136;11.062;2024-02-16T12:28:27;18.70;99.90
7388;DHT22;3735;50.136;11.062;2024-02-16T12:30:57;18.70;99.90
7388;DHT22;3735;50.136;11.062;2024-02-16T12:33:24;18.80;99.90
7388;DHT22;3735;50.136;11.062;2024-02-16T12:35:50;18.80;99.90
7388;DHT22;3735;50.136;11.062;2024-02-16T12:38:17;18.80;99.90
7388;DHT22;3735;50.136;11.062;2024-02-16T12:40:46;18.70;99.90
7388;DHT22;3735;50.136;11.062;2024-02-16T12:43:12;18.80;99.90
7388;DHT22;3735;50.136;11.062;2024-02-16T12:45:39;18.80;99.90
7388;DHT22;3735;50.136;11.062;2024-02-16T12:48:05;18.80;99.90
7388;DHT22;3735;50.136;11.062;2024-02-16T12:50:32;19.00;99.90
7388;DHT22;3735;50.136;11.062;2024-02-16T12:53:01;19.40;99.90
7388;DHT22;3735;50.136;11.062;2024-02-16T12:55:26;19.70;99.90
7388;DHT22;3735;50.136;11.062;2024-02-16T12:57:53;19.80;99.90
7388;DHT22;3735;50.136;11.062;2024-02-16T13:00:19;19.80;99.90
7388;DHT22;3735;50.136;11.062;2024-02-16T13:02:45;19.80;99.90
7388;DHT22;3735;50.136;11.062;2024-02-16T13:05:11;19.60;99.90
7388;DHT22;3735;50.136;11.062;2024-02-16T13:07:37;19.50;99.90
7388;DHT22;3735;50.136;11.062;2024-02-16T13:10:05;19.20;99.90
7388;DHT22;3735;50.136;11.062;2024-02-16T13:12:32;19.10;99.90
7388;DHT22;3735;50.136;11.062;2024-02-16T13:14:58;19.20;99.90
7388;DHT22;3735;50.136;11.062;2024-02-16T13:17:24;19.30;99.90
7388;DHT22;3735;50.136;11.062;2024-02-16T13:19:52;19.70;99.90
7388;DHT22;3735;50.136;11.062;2024-02-16T13:22:18;19.90;99.90
7388;DHT22;3735;50.136;11.062;2024-02-16T13:24:43;19.80;99.90
7388;DHT22;3735;50.136;11.062;2024-02-16T13:27:10;19.20;99.90
7388;DHT22;3735;50.136;11.062;2024-02-16T13:29:35;19.10;99.90
7388;DHT22;3735;50.136;11.062;2024-02-16T13:32:01;19.10;99.90
7388;DHT22;3735;50.136;11.062;2024-02-16T13:34:29;19.20;99.90
7388;DHT22;3735;50.136;11.062;2024-02-16T13:36:55;19.30;99.90
7388;DHT22;3735;50.136;11.062;2024-02-16T13:39:21;19.70;99.90
7388;DHT22;3735;50.136;11.062;2024-02-16T13:41:48;19.80;99.90
7388;DHT22;3735;50.136;11.062;2024-02-16T13:44:17;20.00;99.90
7388;DHT22;3735;50.136;11.062;2024-02-16T13:46:45;20.30;99.90
7388;DHT22;3735;50.136;11.062;2024-02-16T13:49:13;20.60;99.90
7388;DHT22;3735;50.136;11.062;2024-02-16T13:51:40;20.90;99.90
7388;DHT22;3735;50.136;11.062;2024-02-16T13:54:07;21.80;99.90
7388;DHT22;3735;50.136;11.062;2024-02-16T13:56:33;22.40;99.90
7388;DHT22;3735;50.136;11.062;2024-02-16T13:59:01;22.30;99.90
7388;DHT22;3735;50.136;11.062;2024-02-16T14:01:28;21.80;99.90
7388;DHT22;3735;50.136;11.062;2024-02-16T14:03:55;21.10;99.90
7388;DHT22;3735;50.136;11.062;2024-02-16T14:06:21;20.70;99.90
7388;DHT22;3735;50.136;11.062;2024-02-16T14:08:47;20.30;99.90
7388;DHT22;3735;50.136;11.062;2024-02-16T14:11:18;20.10;99.90
7388;DHT22;3735;50.136;11.062;2024-02-16T14:13:44;20.00;99.90
7388;DHT22;3735;50.136;11.062;2024-02-16T14:16:10;20.30;99.90
7388;DHT22;3735;50.136;11.062;2024-02-16T14:18:37;21.00;99.90
7388;DHT22;3735;50.136;11.062;2024-02-16T14:21:03;21.90;99.90
7388;DHT22;3735;50.136;11.062;2024-02-16T14:23:29;22.90;99.90
7388;DHT22;3735;50.136;11.062;2024-02-16T14:25:56;23.40;99.90
7388;DHT22;3735;50.136;11.062;2024-02-16T14:28:22;23.90;99.90
7388;DHT22;3735;50.136;11.062;2024-02-16T14:30:48;24.40;99.90
7388;DHT22;3735;50.136;11.062;2024-02-16T14:33:13;24.30;99.90
7388;DHT22;3735;50.136;11.062;2024-02-16T14:35:43;23.10;99.90
7388;DHT22;3735;50.136;11.062;2024-02-16T14:38:09;22.10;99.90
7388;DHT22;3735;50.136;11.062;2024-02-16T14:40:38;21.20;99.90
7388;DHT22;3735;50.136;11.062;2024-02-16T14:43:04;20.50;99.90
7388;DHT22;3735;50.136;11.062;2024-02-16T14:45:30;20.00;99.90
7388;DHT22;3735;50.136;11.062;2024-02-16T14:47:56;19.80;99.90
7388;DHT22;3735;50.136;11.062;2024-02-16T14:50:23;19.60;99.90
7388;DHT22;3735;50.136;11.062;2024-02-16T14:52:50;19.40;99.90
7388;DHT22;3735;50.136;11.062;2024-02-16T14:55:16;19.10;99.90
7388;DHT22;3735;50.136;11.062;2024-02-16T14:57:43;18.80;99.90
7388;DHT22;3735;50.136;11.062;2024-02-16T15:00:13;18.60;99.90
7388;DHT22;3735;50.136;11.062;2024-02-16T15:02:40;18.40;99.90
7388;DHT22;3735;50.136;11.062;2024-02-16T15:05:09;18.10;99.90
7388;DHT22;3735;50.136;11.062;2024-02-16T15:07:35;18.00;99.90
7388;DHT22;3735;50.136;11.062;2024-02-16T15:10:01;17.90;99.90
7388;DHT22;3735;50.136;11.062;2024-02-16T15:12:28;17.70;99.90
7388;DHT22;3735;50.136;11.062;2024-02-16T15:14:54;17.50;99.90
7388;DHT22;3735;50.136;11.062;2024-02-16T15:17:20;17.20;99.90
7388;DHT22;3735;50.136;11.062;2024-02-16T15:19:47;17.00;99.90
7388;DHT22;3735;50.136;11.062;2024-02-16T15:22:13;16.90;99.90
7388;DHT22;3735;50.136;11.062;2024-02-16T15:24:39;16.60;99.90
7388;DHT22;3735;50.136;11.062;2024-02-16T15:27:04;16.40;99.90
7388;DHT22;3735;50.136;11.062;2024-02-16T15:29:31;16.30;99.90
7388;DHT22;3735;50.136;11.062;2024-02-16T15:31:58;16.20;99.90
7388;DHT22;3735;50.136;11.062;2024-02-16T15:34:25;16.00;99.90
7388;DHT22;3735;50.136;11.062;2024-02-16T15:36:51;15.80;99.90
7388;DHT22;3735;50.136;11.062;2024-02-16T15:39:17;15.70;99.90
7388;DHT22;3735;50.136;11.062;2024-02-16T15:41:43;15.50;99.90
7388;DHT22;3735;50.136;11.062;2024-02-16T15:44:08;15.40;99.90
7388;DHT22;3735;50.136;11.062;2024-02-16T15:46:36;15.30;99.90
7388;DHT22;3735;50.136;11.062;2024-02-16T15:49:03;15.20;99.90
7388;DHT22;3735;50.136;11.062;2024-02-16T15:51:29;15.10;99.90
7388;DHT22;3735;50.136;11.062;2024-02-16T15:53:55;14.90;99.90